sensor_id;sensor_type;location;lat;lon;timestamp;pressure;altitude;pressure_sealevel;temperature;humidity
44027;BME280;29696;55.698;37.460;2023-02-20T00:01:31;97415.44;;;-5.95;81.43
44027;BME280;29696;55.698;37.460;2023-02-20T00:03:57;97412.50;;;-5.89;81.62
44027;BME280;29696;55.698;37.460;2023-02-20T00:06:23;97420.03;;;-5.86;81.80
44027;BME280;29696;55.698;37.460;2023-02-20T00:08:50;97413.06;;;-5.84;81.92
44027;BME280;29696;55.698;37.460;2023-02-20T00:11:16;97413.47;;;-5.76;81.95
44027;BME280;29696;55.698;37.460;2023-02-20T00:13:46;97402.09;;;-5.72;82.31
44027;BME280;29696;55.698;37.460;2023-02-20T00:16:13;97406.97;;;-5.67;82.56
44027;BME280;29696;55.698;37.460;2023-02-20T00:18:40;97412.84;;;-5.65;82.03
44027;BME280;29696;55.698;37.460;2023-02-20T00:21:06;97403.47;;;-5.66;82.26
44027;BME280;29696;55.698;37.460;2023-02-20T00:23:33;97412.59;;;-5.61;82.31
44027;BME280;29696;55.698;37.460;2023-02-20T00:25:59;97410.84;;;-5.60;82.18
44027;BME280;29696;55.698;37.460;2023-02-20T00:28:26;97409.25;;;-5.63;82.22
44027;BME280;29696;55.698;37.460;2023-02-20T00:30:53;97405.69;;;-5.60;82.20
44027;BME280;29696;55.698;37.460;2023-02-20T00:33:19;97409.75;;;-5.56;82.21
44027;BME280;29696;55.698;37.460;2023-02-20T00:35:48;97409.84;;;-5.58;82.12
44027;BME280;29696;55.698;37.460;2023-02-20T00:38:14;97408.72;;;-5.54;82.09
44027;BME280;29696;55.698;37.460;2023-02-20T00:40:41;97408.84;;;-5.55;81.75
44027;BME280;29696;55.698;37.460;2023-02-20T00:43:08;97403.75;;;-5.57;81.48
44027;BME280;29696;55.698;37.460;2023-02-20T00:45:34;97400.28;;;-5.56;81.43
44027;BME280;29696;55.698;37.460;2023-02-20T00:48:00;97406.91;;;-5.52;81.38
44027;BME280;29696;55.698;37.460;2023-02-20T00:50:27;97405.09;;;-5.49;81.32
44027;BME280;29696;55.698;37.460;2023-02-20T00:52:53;97403.22;;;-5.47;81.45
44027;BME280;29696;55.698;37.460;2023-02-20T00:55:19;97401.75;;;-5.52;80.96
44027;BME280;29696;55.698;37.460;2023-02-20T00:57:46;97392.28;;;-5.51;80.79
44027;BME280;29696;55.698;37.460;2023-02-20T01:00:27;97388.91;;;-5.52;80.62
44027;BME280;29696;55.698;37.460;2023-02-20T01:02:54;97397.06;;;-5.45;80.78
44027;BME280;29696;55.698;37.460;2023-02-20T01:05:23;97399.47;;;-5.42;80.77
44027;BME280;29696;55.698;37.460;2023-02-20T01:07:49;97401.22;;;-5.42;80.67
44027;BME280;29696;55.698;37.460;2023-02-20T01:10:16;97398.84;;;-5.45;80.13
44027;BME280;29696;55.698;37.460;2023-02-20T01:12:42;97400.66;;;-5.47;79.46
44027;BME280;29696;55.698;37.460;2023-02-20T01:15:11;97401.69;;;-5.50;79.54
44027;BME280;29696;55.698;37.460;2023-02-20T01:17:39;97401.13;;;-5.55;79.29
44027;BME280;29696;55.698;37.460;2023-02-20T01:20:06;97396.91;;;-5.56;79.25
44027;BME280;29696;55.698;37.460;2023-02-20T01:22:33;97404.69;;;-5.58;79.30
44027;BME280;29696;55.698;37.460;2023-02-20T01:24:59;97396.16;;;-5.58;79.52
44027;BME280;29696;55.698;37.460;2023-02-20T01:27:25;97405.50;;;-5.57;79.66
44027;BME280;29696;55.698;37.460;2023-02-20T01:29:52;97412.34;;;-5.56;79.41
44027;BME280;29696;55.698;37.460;2023-02-20T01:32:19;97402.13;;;-5.58;79.39
44027;BME280;29696;55.698;37.460;2023-02-20T01:34:45;97409.75;;;-5.56;79.41
44027;BME280;29696;55.698;37.460;2023-02-20T01:37:15;97401.28;;;-5.58;79.27
44027;BME280;29696;55.698;37.460;2023-02-20T01:39:41;97404.28;;;-5.66;78.92
44027;BME280;29696;55.698;37.460;2023-02-20T01:42:12;97411.03;;;-5.63;79.14
44027;BME280;29696;55.698;37.460;2023-02-20T01:44:42;97412.28;;;-5.70;79.05
44027;BME280;29696;55.698;37.460;2023-02-20T01:47:14;97404.00;;;-5.76;79.08
44027;BME280;29696;55.698;37.460;2023-02-20T01:49:59;97415.13;;;-5.75;79.01
44027;BME280;29696;55.698;37.460;2023-02-20T01:52:33;97414.06;;;-5.87;79.20
44027;BME280;29696;55.698;37.460;2023-02-20T01:58:06;97415.81;;;-5.87;79.75
44027;BME280;29696;55.698;37.460;2023-02-20T02:00:36;97421.06;;;-5.89;79.74
44027;BME280;29696;55.698;37.460;2023-02-20T02:03:06;97421.97;;;-5.90;79.57
44027;BME280;29696;55.698;37.460;2023-02-20T02:05:34;97417.28;;;-5.98;79.70
44027;BME280;29696;55.698;37.460;2023-02-20T02:08:03;97419.94;;;-5.99;79.50
44027;BME280;29696;55.698;37.460;2023-02-20T02:10:36;97417.47;;;-6.01;79.64
44027;BME280;29696;55.698;37.460;2023-02-20T02:13:03;97428.16;;;-6.08;79.84
44027;BME280;29696;55.698;37.460;2023-02-20T02:15:31;97425.88;;;-6.13;79.50
44027;BME280;29696;55.698;37.460;2023-02-20T02:28:12;97434.63;;;-6.17;80.17
44027;BME280;29696;55.698;37.460;2023-02-20T02:41:34;97451.97;;;-6.21;80.25
44027;BME280;29696;55.698;37.460;2023-02-20T02:44:35;97448.31;;;-6.16;80.42
44027;BME280;29696;55.698;37.460;2023-02-20T02:47:09;97449.56;;;-6.24;80.22
44027;BME280;29696;55.698;37.460;2023-02-20T02:52:56;97443.78;;;-6.27;80.40
44027;BME280;29696;55.698;37.460;2023-02-20T02:55:28;97446.09;;;-6.23;80.06
44027;BME280;29696;55.698;37.460;2023-02-20T02:57:55;97433.84;;;-6.33;79.92
44027;BME280;29696;55.698;37.460;2023-02-20T03:00:26;97441.53;;;-6.33;79.78
44027;BME280;29696;55.698;37.460;2023-02-20T03:03:17;97441.44;;;-6.32;79.87
44027;BME280;29696;55.698;37.460;2023-02-20T03:06:04;97443.28;;;-6.34;80.10
44027;BME280;29696;55.698;37.460;2023-02-20T03:09:12;97443.19;;;-6.32;80.32
44027;BME280;29696;55.698;37.460;2023-02-20T03:12:02;97439.47;;;-6.43;79.91
44027;BME280;29696;55.698;37.460;2023-02-20T03:14:41;97432.66;;;-6.44;79.77
44027;BME280;29696;55.698;37.460;2023-02-20T03:17:36;97443.25;;;-6.50;79.81
44027;BME280;29696;55.698;37.460;2023-02-20T03:20:10;97442.09;;;-6.60;79.70
44027;BME280;29696;55.698;37.460;2023-02-20T03:26:04;97438.94;;;-6.65;79.72
44027;BME280;29696;55.698;37.460;2023-02-20T03:28:57;97444.41;;;-6.71;79.90
44027;BME280;29696;55.698;37.460;2023-02-20T03:31:32;97445.72;;;-6.80;80.10
44027;BME280;29696;55.698;37.460;2023-02-20T03:34:13;97444.56;;;-6.74;80.58
44027;BME280;29696;55.698;37.460;2023-02-20T03:37:19;97456.59;;;-6.75;80.46
44027;BME280;29696;55.698;37.460;2023-02-20T03:40:10;97450.63;;;-6.75;80.78
44027;BME280;29696;55.698;37.460;2023-02-20T03:43:09;97456.50;;;-6.73;80.91
44027;BME280;29696;55.698;37.460;2023-02-20T03:46:12;97455.19;;;-6.64;80.92
44027;BME280;29696;55.698;37.460;2023-02-20T03:48:47;97451.03;;;-6.67;80.78
44027;BME280;29696;55.698;37.460;2023-02-20T03:51:16;97456.78;;;-6.62;80.74
44027;BME280;29696;55.698;37.460;2023-02-20T03:53:52;97453.31;;;-6.61;80.50
44027;BME280;29696;55.698;37.460;2023-02-20T04:02:30;97457.94;;;-6.52;80.02
44027;BME280;29696;55.698;37.460;2023-02-20T04:05:00;97463.59;;;-6.45;80.12
44027;BME280;29696;55.698;37.460;2023-02-20T04:08:02;97467.97;;;-6.47;79.76
44027;BME280;29696;55.698;37.460;2023-02-20T04:10:38;97454.63;;;-6.54;79.88
44027;BME280;29696;55.698;37.460;2023-02-20T04:13:06;97458.28;;;-6.58;79.61
44027;BME280;29696;55.698;37.460;2023-02-20T04:15:33;97457.53;;;-6.60;79.46
44027;BME280;29696;55.698;37.460;2023-02-20T04:18:09;97455.63;;;-6.56;79.60
44027;BME280;29696;55.698;37.460;2023-02-20T04:20:37;97460.84;;;-6.58;79.70
44027;BME280;29696;55.698;37.460;2023-02-20T04:23:23;97462.72;;;-6.61;79.72
44027;BME280;29696;55.698;37.460;2023-02-20T04:26:15;97465.91;;;-6.56;79.87
44027;BME280;29696;55.698;37.460;2023-02-20T04:28:45;97465.41;;;-6.63;79.94
44027;BME280;29696;55.698;37.460;2023-02-20T04:31:15;97466.97;;;-6.60;80.20
44027;BME280;29696;55.698;37.460;2023-02-20T04:33:42;97462.66;;;-6.60;79.97
44027;BME280;29696;55.698;37.460;2023-02-20T04:36:21;97463.47;;;-6.59;79.83
44027;BME280;29696;55.698;37.460;2023-02-20T04:38:49;97466.72;;;-6.56;79.95
44027;BME280;29696;55.698;37.460;2023-02-20T04:41:19;97468.47;;;-6.56;79.79
44027;BME280;29696;55.698;37.460;2023-02-20T04:43:46;97460.84;;;-6.58;79.77
44027;BME280;29696;55.698;37.460;2023-02-20T04:46:13;97462.81;;;-6.63;79.65
44027;BME280;29696;55.698;37.460;2023-02-20T04:48:40;97469.38;;;-6.57;79.77
44027;BME280;29696;55.698;37.460;2023-02-20T04:51:06;97477.81;;;-6.55;79.75
44027;BME280;29696;55.698;37.460;2023-02-20T04:53:33;97474.53;;;-6.57;79.85
44027;BME280;29696;55.698;37.460;2023-02-20T04:56:00;97477.91;;;-6.57;79.55
44027;BME280;29696;55.698;37.460;2023-02-20T04:58:27;97470.97;;;-6.55;79.66
44027;BME280;29696;55.698;37.460;2023-02-20T05:00:57;97482.94;;;-6.55;79.36
44027;BME280;29696;55.698;37.460;2023-02-20T05:03:23;97479.50;;;-6.54;79.48
44027;BME280;29696;55.698;37.460;2023-02-20T05:05:50;97485.19;;;-6.49;79.33
44027;BME280;29696;55.698;37.460;2023-02-20T05:08:16;97488.03;;;-6.54;79.28
44027;BME280;29696;55.698;37.460;2023-02-20T05:10:43;97488.94;;;-6.55;78.83
44027;BME280;29696;55.698;37.460;2023-02-20T05:13:09;97484.13;;;-6.61;78.09
44027;BME280;29696;55.698;37.460;2023-02-20T05:15:35;97491.16;;;-6.64;78.05
44027;BME280;29696;55.698;37.460;2023-02-20T05:18:02;97481.72;;;-6.64;78.18
44027;BME280;29696;55.698;37.460;2023-02-20T05:20:28;97479.97;;;-6.63;78.44
44027;BME280;29696;55.698;37.460;2023-02-20T05:23:13;97488.09;;;-6.55;78.39
44027;BME280;29696;55.698;37.460;2023-02-20T05:25:39;97483.72;;;-6.53;78.16
44027;BME280;29696;55.698;37.460;2023-02-20T05:28:06;97483.22;;;-6.44;78.61
44027;BME280;29696;55.698;37.460;2023-02-20T05:30:32;97492.34;;;-6.38;78.54
44027;BME280;29696;55.698;37.460;2023-02-20T05:32:58;97484.47;;;-6.35;78.15
44027;BME280;29696;55.698;37.460;2023-02-20T05:35:25;97478.34;;;-6.33;78.01
44027;BME280;29696;55.698;37.460;2023-02-20T05:37:51;97489.13;;;-6.26;78.13
44027;BME280;29696;55.698;37.460;2023-02-20T05:40:17;97488.06;;;-6.22;78.06
44027;BME280;29696;55.698;37.460;2023-02-20T05:42:44;97490.19;;;-6.14;78.05
44027;BME280;29696;55.698;37.460;2023-02-20T05:45:10;97491.53;;;-6.07;77.37
44027;BME280;29696;55.698;37.460;2023-02-20T05:47:37;97495.09;;;-6.10;76.58
44027;BME280;29696;55.698;37.460;2023-02-20T05:50:04;97478.28;;;-6.15;76.64
44027;BME280;29696;55.698;37.460;2023-02-20T05:52:31;97499.22;;;-6.07;76.66
44027;BME280;29696;55.698;37.460;2023-02-20T05:54:57;97495.19;;;-6.11;76.17
44027;BME280;29696;55.698;37.460;2023-02-20T05:57:24;97499.22;;;-6.07;76.18
44027;BME280;29696;55.698;37.460;2023-02-20T05:59:50;97498.50;;;-6.09;75.58
44027;BME280;29696;55.698;37.460;2023-02-20T06:02:16;97490.97;;;-6.12;75.40
44027;BME280;29696;55.698;37.460;2023-02-20T06:04:43;97510.38;;;-6.07;75.99
44027;BME280;29696;55.698;37.460;2023-02-20T06:07:09;97511.09;;;-6.05;75.96
44027;BME280;29696;55.698;37.460;2023-02-20T06:09:35;97505.97;;;-6.05;75.58
44027;BME280;29696;55.698;37.460;2023-02-20T06:12:02;97520.38;;;-6.02;75.26
44027;BME280;29696;55.698;37.460;2023-02-20T06:14:28;97513.59;;;-6.03;75.09
44027;BME280;29696;55.698;37.460;2023-02-20T06:16:56;97512.78;;;-6.04;75.19
44027;BME280;29696;55.698;37.460;2023-02-20T06:19:23;97518.75;;;-6.03;75.26
44027;BME280;29696;55.698;37.460;2023-02-20T06:21:51;97517.16;;;-6.06;75.32
44027;BME280;29696;55.698;37.460;2023-02-20T06:24:23;97523.63;;;-5.99;75.51
44027;BME280;29696;55.698;37.460;2023-02-20T06:26:51;97518.31;;;-5.95;75.46
44027;BME280;29696;55.698;37.460;2023-02-20T06:29:18;97529.81;;;-5.87;75.33
44027;BME280;29696;55.698;37.460;2023-02-20T06:31:44;97536.38;;;-5.81;75.10
44027;BME280;29696;55.698;37.460;2023-02-20T06:34:11;97527.66;;;-5.79;74.70
44027;BME280;29696;55.698;37.460;2023-02-20T06:36:39;97536.13;;;-5.77;74.29
44027;BME280;29696;55.698;37.460;2023-02-20T06:39:08;97529.31;;;-5.78;74.07
44027;BME280;29696;55.698;37.460;2023-02-20T06:41:34;97516.59;;;-5.81;73.88
44027;BME280;29696;55.698;37.460;2023-02-20T06:44:01;97524.66;;;-5.71;73.96
44027;BME280;29696;55.698;37.460;2023-02-20T06:46:27;97527.91;;;-5.67;74.12
44027;BME280;29696;55.698;37.460;2023-02-20T06:48:56;97521.41;;;-5.59;74.53
44027;BME280;29696;55.698;37.460;2023-02-20T06:51:26;97534.66;;;-5.51;73.96
44027;BME280;29696;55.698;37.460;2023-02-20T06:53:53;97530.25;;;-5.48;73.56
44027;BME280;29696;55.698;37.460;2023-02-20T06:56:25;97531.75;;;-5.44;73.43
44027;BME280;29696;55.698;37.460;2023-02-20T06:58:52;97519.97;;;-5.48;73.27
44027;BME280;29696;55.698;37.460;2023-02-20T07:01:20;97540.97;;;-5.40;72.73
44027;BME280;29696;55.698;37.460;2023-02-20T07:03:47;97542.97;;;-5.45;71.91
44027;BME280;29696;55.698;37.460;2023-02-20T07:06:15;97539.47;;;-5.44;72.24
44027;BME280;29696;55.698;37.460;2023-02-20T07:08:42;97525.75;;;-5.45;72.67
44027;BME280;29696;55.698;37.460;2023-02-20T07:11:08;97534.00;;;-5.38;72.28
44027;BME280;29696;55.698;37.460;2023-02-20T07:13:35;97527.81;;;-5.36;72.23
44027;BME280;29696;55.698;37.460;2023-02-20T07:16:01;97531.06;;;-5.32;72.21
44027;BME280;29696;55.698;37.460;2023-02-20T07:18:27;97539.09;;;-5.22;72.27
44027;BME280;29696;55.698;37.460;2023-02-20T07:20:54;97540.13;;;-5.11;72.63
44027;BME280;29696;55.698;37.460;2023-02-20T07:23:21;97540.84;;;-5.09;71.47
44027;BME280;29696;55.698;37.460;2023-02-20T07:25:47;97550.97;;;-5.06;70.94
44027;BME280;29696;55.698;37.460;2023-02-20T07:28:16;97544.00;;;-5.03;70.84
44027;BME280;29696;55.698;37.460;2023-02-20T07:30:45;97548.63;;;-4.94;71.37
44027;BME280;29696;55.698;37.460;2023-02-20T07:33:17;97542.69;;;-4.80;71.85
44027;BME280;29696;55.698;37.460;2023-02-20T07:35:44;97548.13;;;-4.71;71.20
44027;BME280;29696;55.698;37.460;2023-02-20T07:38:11;97542.97;;;-4.71;70.64
44027;BME280;29696;55.698;37.460;2023-02-20T07:40:38;97538.81;;;-4.73;69.84
44027;BME280;29696;55.698;37.460;2023-02-20T07:43:04;97538.16;;;-4.77;69.88
44027;BME280;29696;55.698;37.460;2023-02-20T07:45:30;97545.81;;;-4.75;70.33
44027;BME280;29696;55.698;37.460;2023-02-20T07:47:57;97546.66;;;-4.75;70.69
44027;BME280;29696;55.698;37.460;2023-02-20T07:50:23;97550.97;;;-4.75;69.98
44027;BME280;29696;55.698;37.460;2023-02-20T07:52:49;97555.84;;;-4.71;70.25
44027;BME280;29696;55.698;37.460;2023-02-20T07:55:17;97553.47;;;-4.60;70.43
44027;BME280;29696;55.698;37.460;2023-02-20T07:57:47;97560.72;;;-4.52;69.38
44027;BME280;29696;55.698;37.460;2023-02-20T08:00:17;97564.16;;;-4.51;68.29
44027;BME280;29696;55.698;37.460;2023-02-20T08:02:44;97556.44;;;-4.51;68.80
44027;BME280;29696;55.698;37.460;2023-02-20T08:05:11;97556.88;;;-4.45;69.81
44027;BME280;29696;55.698;37.460;2023-02-20T08:07:38;97565.53;;;-4.31;70.34
44027;BME280;29696;55.698;37.460;2023-02-20T08:10:08;97564.06;;;-4.21;70.29
44027;BME280;29696;55.698;37.460;2023-02-20T08:12:35;97568.75;;;-4.14;69.17
44027;BME280;29696;55.698;37.460;2023-02-20T08:15:01;97573.72;;;-4.10;68.56
44027;BME280;29696;55.698;37.460;2023-02-20T08:17:30;97571.25;;;-4.12;68.10
44027;BME280;29696;55.698;37.460;2023-02-20T08:19:56;97569.13;;;-4.05;68.55
44027;BME280;29696;55.698;37.460;2023-02-20T08:22:22;97572.06;;;-3.97;68.03
44027;BME280;29696;55.698;37.460;2023-02-20T08:24:48;97566.97;;;-3.99;67.16
44027;BME280;29696;55.698;37.460;2023-02-20T08:27:15;97566.72;;;-4.08;66.70
44027;BME280;29696;55.698;37.460;2023-02-20T08:29:41;97566.09;;;-4.12;67.35
44027;BME280;29696;55.698;37.460;2023-02-20T08:32:07;97568.19;;;-4.04;67.55
44027;BME280;29696;55.698;37.460;2023-02-20T08:34:33;97577.03;;;-3.94;67.35
44027;BME280;29696;55.698;37.460;2023-02-20T08:37:00;97582.06;;;-3.78;67.23
44027;BME280;29696;55.698;37.460;2023-02-20T08:39:26;97578.91;;;-3.69;65.96
44027;BME280;29696;55.698;37.460;2023-02-20T08:41:52;97596.72;;;-3.64;64.99
44027;BME280;29696;55.698;37.460;2023-02-20T08:44:19;97594.13;;;-3.64;64.69
44027;BME280;29696;55.698;37.460;2023-02-20T08:46:49;97598.34;;;-3.63;65.04
44027;BME280;29696;55.698;37.460;2023-02-20T08:49:17;97591.75;;;-3.68;64.47
44027;BME280;29696;55.698;37.460;2023-02-20T08:51:45;97584.91;;;-3.69;64.85
44027;BME280;29696;55.698;37.460;2023-02-20T08:54:12;97589.34;;;-3.71;64.82
44027;BME280;29696;55.698;37.460;2023-02-20T08:56:38;97589.44;;;-3.72;66.08
44027;BME280;29696;55.698;37.460;2023-02-20T08:59:05;97581.41;;;-3.68;66.13
44027;BME280;29696;55.698;37.460;2023-02-20T09:01:31;97583.84;;;-3.52;66.10
44027;BME280;29696;55.698;37.460;2023-02-20T09:03:58;97566.03;;;-3.42;64.61
44027;BME280;29696;55.698;37.460;2023-02-20T09:06:24;97575.88;;;-3.34;64.31
44027;BME280;29696;55.698;37.460;2023-02-20T09:08:51;97577.94;;;-3.27;64.66
44027;BME280;29696;55.698;37.460;2023-02-20T09:11:18;97569.91;;;-3.22;64.40
44027;BME280;29696;55.698;37.460;2023-02-20T09:13:45;97577.56;;;-3.21;63.61
44027;BME280;29696;55.698;37.460;2023-02-20T09:16:13;97580.59;;;-3.14;64.40
44027;BME280;29696;55.698;37.460;2023-02-20T09:18:40;97584.28;;;-3.18;63.98
44027;BME280;29696;55.698;37.460;2023-02-20T09:21:11;97585.56;;;-3.11;65.04
44027;BME280;29696;55.698;37.460;2023-02-20T09:23:38;97590.88;;;-3.27;64.85
44027;BME280;29696;55.698;37.460;2023-02-20T09:26:05;97600.88;;;-3.35;65.02
44027;BME280;29696;55.698;37.460;2023-02-20T09:28:31;97599.75;;;-3.31;65.54
44027;BME280;29696;55.698;37.460;2023-02-20T09:30:57;97598.56;;;-3.39;64.38
44027;BME280;29696;55.698;37.460;2023-02-20T09:33:26;97602.28;;;-3.43;64.45
44027;BME280;29696;55.698;37.460;2023-02-20T09:35:54;97599.22;;;-3.50;64.84
44027;BME280;29696;55.698;37.460;2023-02-20T09:38:21;97594.56;;;-3.58;64.97
44027;BME280;29696;55.698;37.460;2023-02-20T09:40:49;97600.38;;;-3.69;64.68
44027;BME280;29696;55.698;37.460;2023-02-20T09:46:14;97593.03;;;-3.75;65.33
44027;BME280;29696;55.698;37.460;2023-02-20T09:51:50;97572.09;;;-3.70;63.74
44027;BME280;29696;55.698;37.460;2023-02-20T09:54:39;97588.81;;;-3.49;64.55
44027;BME280;29696;55.698;37.460;2023-02-20T09:57:12;97584.47;;;-3.48;64.18
44027;BME280;29696;55.698;37.460;2023-02-20T09:59:44;97587.69;;;-3.45;63.54
44027;BME280;29696;55.698;37.460;2023-02-20T10:02:17;97579.91;;;-3.30;63.47
44027;BME280;29696;55.698;37.460;2023-02-20T10:04:50;97584.28;;;-3.18;63.30
44027;BME280;29696;55.698;37.460;2023-02-20T10:07:52;97580.22;;;-2.95;63.51
44027;BME280;29696;55.698;37.460;2023-02-20T10:10:38;97579.91;;;-2.90;62.79
44027;BME280;29696;55.698;37.460;2023-02-20T10:16:36;97573.09;;;-2.79;62.90
44027;BME280;29696;55.698;37.460;2023-02-20T10:23:08;97571.44;;;-2.92;61.90
44027;BME280;29696;55.698;37.460;2023-02-20T10:25:44;97570.56;;;-3.06;61.96
44027;BME280;29696;55.698;37.460;2023-02-20T10:28:16;97580.81;;;-3.04;62.94
44027;BME280;29696;55.698;37.460;2023-02-20T10:30:46;97584.75;;;-2.99;61.60
44027;BME280;29696;55.698;37.460;2023-02-20T10:33:39;97586.81;;;-2.91;61.71
44027;BME280;29696;55.698;37.460;2023-02-20T10:43:51;97580.53;;;-2.87;61.68
44027;BME280;29696;55.698;37.460;2023-02-20T10:46:40;97579.28;;;-2.94;61.44
44027;BME280;29696;55.698;37.460;2023-02-20T10:49:15;97580.50;;;-3.00;61.17
44027;BME280;29696;55.698;37.460;2023-02-20T10:51:45;97581.84;;;-3.07;61.80
44027;BME280;29696;55.698;37.460;2023-02-20T10:54:47;97580.63;;;-2.88;62.67
44027;BME280;29696;55.698;37.460;2023-02-20T10:57:21;97573.59;;;-2.99;61.71
44027;BME280;29696;55.698;37.460;2023-02-20T11:00:14;97575.03;;;-2.95;62.31
44027;BME280;29696;55.698;37.460;2023-02-20T11:02:46;97581.91;;;-3.08;62.75
44027;BME280;29696;55.698;37.460;2023-02-20T11:05:18;97577.88;;;-3.12;62.29
44027;BME280;29696;55.698;37.460;2023-02-20T11:07:47;97577.88;;;-3.12;61.31
44027;BME280;29696;55.698;37.460;2023-02-20T11:10:14;97581.41;;;-3.13;61.67
44027;BME280;29696;55.698;37.460;2023-02-20T11:12:49;97571.91;;;-3.13;61.13
44027;BME280;29696;55.698;37.460;2023-02-20T11:15:23;97576.84;;;-3.23;61.42
44027;BME280;29696;55.698;37.460;2023-02-20T11:17:52;97569.97;;;-3.36;61.37
44027;BME280;29696;55.698;37.460;2023-02-20T11:20:51;97571.97;;;-3.27;61.43
44027;BME280;29696;55.698;37.460;2023-02-20T11:23:42;97583.00;;;-3.38;62.01
44027;BME280;29696;55.698;37.460;2023-02-20T11:26:37;97572.34;;;-3.33;62.82
44027;BME280;29696;55.698;37.460;2023-02-20T11:29:15;97579.50;;;-3.24;62.74
44027;BME280;29696;55.698;37.460;2023-02-20T11:31:43;97580.91;;;-3.33;61.19
44027;BME280;29696;55.698;37.460;2023-02-20T11:34:20;97585.88;;;-3.30;61.59
44027;BME280;29696;55.698;37.460;2023-02-20T11:36:52;97591.44;;;-3.36;61.79
44027;BME280;29696;55.698;37.460;2023-02-20T11:39:29;97594.94;;;-3.50;61.53
44027;BME280;29696;55.698;37.460;2023-02-20T11:42:14;97600.47;;;-3.56;62.69
44027;BME280;29696;55.698;37.460;2023-02-20T11:44:42;97598.94;;;-3.73;62.35
44027;BME280;29696;55.698;37.460;2023-02-20T11:47:16;97599.47;;;-3.68;62.54
44027;BME280;29696;55.698;37.460;2023-02-20T11:49:43;97599.81;;;-3.59;62.51
44027;BME280;29696;55.698;37.460;2023-02-20T11:52:35;97600.72;;;-3.46;62.35
44027;BME280;29696;55.698;37.460;2023-02-20T11:55:11;97607.47;;;-3.58;61.92
44027;BME280;29696;55.698;37.460;2023-02-20T11:57:44;97603.84;;;-3.82;61.53
44027;BME280;29696;55.698;37.460;2023-02-20T12:00:44;97605.28;;;-3.78;63.38
44027;BME280;29696;55.698;37.460;2023-02-20T12:03:13;97605.88;;;-4.02;62.52
44027;BME280;29696;55.698;37.460;2023-02-20T12:05:45;97608.00;;;-4.08;62.05
44027;BME280;29696;55.698;37.460;2023-02-20T12:11:21;97602.66;;;-4.20;62.86
44027;BME280;29696;55.698;37.460;2023-02-20T12:13:53;97599.63;;;-4.26;62.65
44027;BME280;29696;55.698;37.460;2023-02-20T12:22:48;97605.69;;;-4.42;64.36
44027;BME280;29696;55.698;37.460;2023-02-20T12:29:03;97605.03;;;-4.17;63.60
44027;BME280;29696;55.698;37.460;2023-02-20T12:35:12;97609.66;;;-4.07;62.63
44027;BME280;29696;55.698;37.460;2023-02-20T12:51:35;97617.41;;;-4.22;63.11
44027;BME280;29696;55.698;37.460;2023-02-20T12:54:53;97614.25;;;-4.27;63.05
44027;BME280;29696;55.698;37.460;2023-02-20T13:07:23;97606.25;;;-4.22;63.38
44027;BME280;29696;55.698;37.460;2023-02-20T13:09:58;97601.00;;;-4.35;62.41
44027;BME280;29696;55.698;37.460;2023-02-20T13:12:26;97594.25;;;-4.52;62.92
44027;BME280;29696;55.698;37.460;2023-02-20T13:18:41;97604.47;;;-4.50;63.58
44027;BME280;29696;55.698;37.460;2023-02-20T13:21:11;97603.69;;;-4.67;63.28
44027;BME280;29696;55.698;37.460;2023-02-20T13:23:39;97603.22;;;-4.73;63.81
44027;BME280;29696;55.698;37.460;2023-02-20T13:29:23;97599.44;;;-4.82;63.70
44027;BME280;29696;55.698;37.460;2023-02-20T13:38:10;97596.34;;;-5.03;65.07
44027;BME280;29696;55.698;37.460;2023-02-20T13:40:40;97600.03;;;-5.07;65.62
44027;BME280;29696;55.698;37.460;2023-02-20T13:43:33;97607.88;;;-4.94;66.64
44027;BME280;29696;55.698;37.460;2023-02-20T13:46:20;97609.19;;;-4.87;66.39
44027;BME280;29696;55.698;37.460;2023-02-20T13:48:51;97605.22;;;-4.93;66.04
44027;BME280;29696;55.698;37.460;2023-02-20T13:51:38;97605.34;;;-4.80;66.23
44027;BME280;29696;55.698;37.460;2023-02-20T13:54:34;97607.09;;;-4.80;65.56
44027;BME280;29696;55.698;37.460;2023-02-20T13:57:07;97613.81;;;-4.78;65.67
44027;BME280;29696;55.698;37.460;2023-02-20T13:59:36;97612.50;;;-4.85;65.27
44027;BME280;29696;55.698;37.460;2023-02-20T14:02:35;97613.00;;;-4.78;64.85
44027;BME280;29696;55.698;37.460;2023-02-20T14:05:06;97604.66;;;-4.98;63.99
44027;BME280;29696;55.698;37.460;2023-02-20T14:07:36;97602.59;;;-5.07;63.77
44027;BME280;29696;55.698;37.460;2023-02-20T14:10:16;97614.72;;;-5.09;64.12
44027;BME280;29696;55.698;37.460;2023-02-20T14:12:45;97601.97;;;-5.27;63.94
44027;BME280;29696;55.698;37.460;2023-02-20T14:15:17;97613.44;;;-5.32;64.23
44027;BME280;29696;55.698;37.460;2023-02-20T14:17:44;97616.59;;;-5.43;64.72
44027;BME280;29696;55.698;37.460;2023-02-20T14:20:24;97620.66;;;-5.39;65.56
44027;BME280;29696;55.698;37.460;2023-02-20T14:23:09;97617.69;;;-5.47;65.45
44027;BME280;29696;55.698;37.460;2023-02-20T14:25:36;97628.50;;;-5.56;65.70
44027;BME280;29696;55.698;37.460;2023-02-20T14:28:05;97622.59;;;-5.58;66.07
44027;BME280;29696;55.698;37.460;2023-02-20T14:30:32;97622.00;;;-5.63;66.73
44027;BME280;29696;55.698;37.460;2023-02-20T14:32:59;97623.69;;;-5.62;67.03
44027;BME280;29696;55.698;37.460;2023-02-20T14:35:51;97621.28;;;-5.49;67.86
44027;BME280;29696;55.698;37.460;2023-02-20T14:38:55;97627.91;;;-5.45;67.49
44027;BME280;29696;55.698;37.460;2023-02-20T14:41:24;97631.91;;;-5.56;66.74
44027;BME280;29696;55.698;37.460;2023-02-20T14:43:58;97627.56;;;-5.55;66.98
44027;BME280;29696;55.698;37.460;2023-02-20T14:46:33;97631.06;;;-5.56;66.95
44027;BME280;29696;55.698;37.460;2023-02-20T14:49:27;97626.75;;;-5.56;66.88
44027;BME280;29696;55.698;37.460;2023-02-20T14:52:28;97637.22;;;-5.59;67.28
44027;BME280;29696;55.698;37.460;2023-02-20T14:54:57;97628.41;;;-5.70;67.07
44027;BME280;29696;55.698;37.460;2023-02-20T14:57:24;97639.84;;;-5.76;67.28
44027;BME280;29696;55.698;37.460;2023-02-20T15:00:07;97633.28;;;-5.66;67.67
44027;BME280;29696;55.698;37.460;2023-02-20T15:02:33;97627.66;;;-5.72;67.41
44027;BME280;29696;55.698;37.460;2023-02-20T15:05:05;97630.16;;;-5.71;67.58
44027;BME280;29696;55.698;37.460;2023-02-20T15:07:32;97624.16;;;-5.71;67.51